sensor_id;sensor_type;location;lat;lon;timestamp;temperature;humidity
81311;DHT22;70779;52.506;5.492;2024-02-26T00:00:05;7.10;69.50
81311;DHT22;70779;52.506;5.492;2024-02-26T00:02:36;7.10;69.60
81311;DHT22;70779;52.506;5.492;2024-02-26T00:05:05;7.00;69.60
81311;DHT22;70779;52.506;5.492;2024-02-26T00:07:32;7.00;69.70
81311;DHT22;70779;52.506;5.492;2024-02-26T00:09:58;7.00;69.90
81311;DHT22;70779;52.506;5.492;2024-02-26T00:12:24;7.00;69.90
81311;DHT22;70779;52.506;5.492;2024-02-26T00:14:50;6.90;70.00
81311;DHT22;70779;52.506;5.492;2024-02-26T00:17:16;6.90;70.10
81311;DHT22;70779;52.506;5.492;2024-02-26T00:19:42;6.90;70.10
81311;DHT22;70779;52.506;5.492;2024-02-26T00:22:08;6.90;70.20
81311;DHT22;70779;52.506;5.492;2024-02-26T00:24:34;7.00;70.20
81311;DHT22;70779;52.506;5.492;2024-02-26T00:27:01;7.00;70.20
81311;DHT22;70779;52.506;5.492;2024-02-26T00:29:27;7.00;70.20
81311;DHT22;70779;52.506;5.492;2024-02-26T00:31:53;7.00;70.10
81311;DHT22;70779;52.506;5.492;2024-02-26T00:34:19;7.00;70.00
81311;DHT22;70779;52.506;5.492;2024-02-26T00:36:45;7.00;70.00
81311;DHT22;70779;52.506;5.492;2024-02-26T00:39:12;7.00;69.90
81311;DHT22;70779;52.506;5.492;2024-02-26T00:41:41;7.10;69.80
81311;DHT22;70779;52.506;5.492;2024-02-26T00:44:07;7.10;69.80
81311;DHT22;70779;52.506;5.492;2024-02-26T00:46:34;7.10;69.70
81311;DHT22;70779;52.506;5.492;2024-02-26T00:49:00;7.20;69.70
81311;DHT22;70779;52.506;5.492;2024-02-26T00:51:27;7.20;69.70
81311;DHT22;70779;52.506;5.492;2024-02-26T00:53:54;7.20;69.60
81311;DHT22;70779;52.506;5.492;2024-02-26T00:56:21;7.20;69.60
81311;DHT22;70779;52.506;5.492;2024-02-26T00:58:47;7.20;69.50
81311;DHT22;70779;52.506;5.492;2024-02-26T01:01:13;7.20;69.60
81311;DHT22;70779;52.506;5.492;2024-02-26T01:03:39;7.20;69.60
81311;DHT22;70779;52.506;5.492;2024-02-26T01:06:06;7.20;69.50
81311;DHT22;70779;52.506;5.492;2024-02-26T01:08:32;7.20;69.50
81311;DHT22;70779;52.506;5.492;2024-02-26T01:10:58;7.20;69.50
81311;DHT22;70779;52.506;5.492;2024-02-26T01:13:24;7.20;69.60
81311;DHT22;70779;52.506;5.492;2024-02-26T01:15:50;7.20;69.60
81311;DHT22;70779;52.506;5.492;2024-02-26T01:18:16;7.20;69.70
81311;DHT22;70779;52.506;5.492;2024-02-26T01:20:42;7.20;69.70
81311;DHT22;70779;52.506;5.492;2024-02-26T01:23:08;7.20;69.80
81311;DHT22;70779;52.506;5.492;2024-02-26T01:25:34;7.10;69.80
81311;DHT22;70779;52.506;5.492;2024-02-26T01:28:00;7.10;69.90
81311;DHT22;70779;52.506;5.492;2024-02-26T01:30:27;7.10;69.90
81311;DHT22;70779;52.506;5.492;2024-02-26T01:32:53;7.00;70.00
81311;DHT22;70779;52.506;5.492;2024-02-26T01:35:19;7.00;70.10
81311;DHT22;70779;52.506;5.492;2024-02-26T01:37:45;7.00;70.10
81311;DHT22;70779;52.506;5.492;2024-02-26T01:40:12;7.00;70.10
81311;DHT22;70779;52.506;5.492;2024-02-26T01:42:38;7.00;70.20
81311;DHT22;70779;52.506;5.492;2024-02-26T01:45:05;7.00;70.30
81311;DHT22;70779;52.506;5.492;2024-02-26T01:47:33;6.90;70.30
81311;DHT22;70779;52.506;5.492;2024-02-26T01:49:59;6.90;70.30
81311;DHT22;70779;52.506;5.492;2024-02-26T01:52:25;6.90;70.40
81311;DHT22;70779;52.506;5.492;2024-02-26T01:54:52;6.90;70.40
81311;DHT22;70779;52.506;5.492;2024-02-26T01:57:18;6.80;70.50
81311;DHT22;70779;52.506;5.492;2024-02-26T01:59:44;6.80;70.50
81311;DHT22;70779;52.506;5.492;2024-02-26T02:02:11;6.80;70.50
81311;DHT22;70779;52.506;5.492;2024-02-26T02:04:39;6.80;70.60
81311;DHT22;70779;52.506;5.492;2024-02-26T02:07:05;6.80;70.70
81311;DHT22;70779;52.506;5.492;2024-02-26T02:09:32;6.80;70.70
81311;DHT22;70779;52.506;5.492;2024-02-26T02:11:58;6.80;70.70
81311;DHT22;70779;52.506;5.492;2024-02-26T02:14:25;6.80;70.60
81311;DHT22;70779;52.506;5.492;2024-02-26T02:16:51;6.80;70.50
81311;DHT22;70779;52.506;5.492;2024-02-26T02:19:17;6.80;70.50
81311;DHT22;70779;52.506;5.492;2024-02-26T02:21:43;6.80;70.50
81311;DHT22;70779;52.506;5.492;2024-02-26T02:24:09;6.80;70.50
81311;DHT22;70779;52.506;5.492;2024-02-26T02:26:36;6.70;70.50
81311;DHT22;70779;52.506;5.492;2024-02-26T02:29:02;6.70;70.50
81311;DHT22;70779;52.506;5.492;2024-02-26T02:31:29;6.70;70.50
81311;DHT22;70779;52.506;5.492;2024-02-26T02:33:55;6.70;70.50
81311;DHT22;70779;52.506;5.492;2024-02-26T02:36:21;6.70;70.50
81311;DHT22;70779;52.506;5.492;2024-02-26T02:38:51;6.70;70.50
81311;DHT22;70779;52.506;5.492;2024-02-26T02:41:17;6.70;70.40
81311;DHT22;70779;52.506;5.492;2024-02-26T02:43:44;6.70;70.30
81311;DHT22;70779;52.506;5.492;2024-02-26T02:46:10;6.70;70.40
81311;DHT22;70779;52.506;5.492;2024-02-26T02:48:39;6.70;70.30
81311;DHT22;70779;52.506;5.492;2024-02-26T02:51:05;6.70;70.20
81311;DHT22;70779;52.506;5.492;2024-02-26T02:53:31;6.70;70.20
81311;DHT22;70779;52.506;5.492;2024-02-26T02:55:57;6.70;70.20
81311;DHT22;70779;52.506;5.492;2024-02-26T02:58:23;6.70;70.10
81311;DHT22;70779;52.506;5.492;2024-02-26T03:00:49;6.70;70.20
81311;DHT22;70779;52.506;5.492;2024-02-26T03:03:16;6.60;70.30
81311;DHT22;70779;52.506;5.492;2024-02-26T03:05:42;6.60;70.30
81311;DHT22;70779;52.506;5.492;2024-02-26T03:08:08;6.60;70.30
81311;DHT22;70779;52.506;5.492;2024-02-26T03:10:35;6.60;70.40
81311;DHT22;70779;52.506;5.492;2024-02-26T03:13:01;6.60;70.40
81311;DHT22;70779;52.506;5.492;2024-02-26T03:15:27;6.60;70.50
81311;DHT22;70779;52.506;5.492;2024-02-26T03:17:53;6.60;70.50
81311;DHT22;70779;52.506;5.492;2024-02-26T03:20:19;6.60;70.50
81311;DHT22;70779;52.506;5.492;2024-02-26T03:22:45;6.60;70.50
81311;DHT22;70779;52.506;5.492;2024-02-26T03:25:11;6.60;70.60
81311;DHT22;70779;52.506;5.492;2024-02-26T03:27:38;6.60;70.60
81311;DHT22;70779;52.506;5.492;2024-02-26T03:30:04;6.70;70.60
81311;DHT22;70779;52.506;5.492;2024-02-26T03:32:31;6.70;70.60
81311;DHT22;70779;52.506;5.492;2024-02-26T03:34:57;6.70;70.60
81311;DHT22;70779;52.506;5.492;2024-02-26T03:37:23;6.70;70.50
81311;DHT22;70779;52.506;5.492;2024-02-26T03:39:49;6.80;70.50
81311;DHT22;70779;52.506;5.492;2024-02-26T03:42:15;6.80;70.40
81311;DHT22;70779;52.506;5.492;2024-02-26T03:44:42;6.80;70.50
81311;DHT22;70779;52.506;5.492;2024-02-26T03:47:08;6.80;70.40
81311;DHT22;70779;52.506;5.492;2024-02-26T03:49:34;6.80;70.40
81311;DHT22;70779;52.506;5.492;2024-02-26T03:52:00;6.80;70.40
81311;DHT22;70779;52.506;5.492;2024-02-26T03:54:26;6.80;70.40
81311;DHT22;70779;52.506;5.492;2024-02-26T03:56:52;6.90;70.30
81311;DHT22;70779;52.506;5.492;2024-02-26T03:59:18;6.90;70.30
81311;DHT22;70779;52.506;5.492;2024-02-26T04:01:48;6.90;70.30
81311;DHT22;70779;52.506;5.492;2024-02-26T04:04:15;6.90;70.40
81311;DHT22;70779;52.506;5.492;2024-02-26T04:06:47;6.90;70.30
81311;DHT22;70779;52.506;5.492;2024-02-26T04:09:16;7.00;70.30
81311;DHT22;70779;52.506;5.492;2024-02-26T04:11:42;7.00;70.40
81311;DHT22;70779;52.506;5.492;2024-02-26T04:14:09;7.00;70.30
81311;DHT22;70779;52.506;5.492;2024-02-26T04:16:37;7.00;70.40
81311;DHT22;70779;52.506;5.492;2024-02-26T04:19:03;7.00;70.40
81311;DHT22;70779;52.506;5.492;2024-02-26T04:21:29;6.90;70.40
81311;DHT22;70779;52.506;5.492;2024-02-26T04:23:55;7.00;70.40
81311;DHT22;70779;52.506;5.492;2024-02-26T04:26:21;7.00;70.40
81311;DHT22;70779;52.506;5.492;2024-02-26T04:28:48;7.00;70.40
81311;DHT22;70779;52.506;5.492;2024-02-26T04:31:14;7.00;70.40
81311;DHT22;70779;52.506;5.492;2024-02-26T04:33:40;7.00;70.50
81311;DHT22;70779;52.506;5.492;2024-02-26T04:36:13;7.00;70.40
81311;DHT22;70779;52.506;5.492;2024-02-26T04:38:41;7.00;70.50
81311;DHT22;70779;52.506;5.492;2024-02-26T04:41:07;7.00;70.50
81311;DHT22;70779;52.506;5.492;2024-02-26T04:43:33;7.00;70.50
81311;DHT22;70779;52.506;5.492;2024-02-26T04:45:59;7.00;70.50
81311;DHT22;70779;52.506;5.492;2024-02-26T04:48:27;7.00;70.50
81311;DHT22;70779;52.506;5.492;2024-02-26T04:50:53;7.00;70.50
81311;DHT22;70779;52.506;5.492;2024-02-26T04:53:20;7.00;70.50
81311;DHT22;70779;52.506;5.492;2024-02-26T04:55:46;7.00;70.50
81311;DHT22;70779;52.506;5.492;2024-02-26T04:58:12;7.00;70.50
81311;DHT22;70779;52.506;5.492;2024-02-26T05:00:38;7.00;70.50
81311;DHT22;70779;52.506;5.492;2024-02-26T05:03:04;7.00;70.50
81311;DHT22;70779;52.506;5.492;2024-02-26T05:05:30;7.00;70.50
81311;DHT22;70779;52.506;5.492;2024-02-26T05:07:56;7.00;70.60
81311;DHT22;70779;52.506;5.492;2024-02-26T05:10:22;7.00;70.50
81311;DHT22;70779;52.506;5.492;2024-02-26T05:12:48;7.00;70.50
81311;DHT22;70779;52.506;5.492;2024-02-26T05:15:14;7.00;70.50
81311;DHT22;70779;52.506;5.492;2024-02-26T05:17:44;7.00;70.50
81311;DHT22;70779;52.506;5.492;2024-02-26T05:20:11;7.00;70.50
81311;DHT22;70779;52.506;5.492;2024-02-26T05:22:37;7.00;70.60
81311;DHT22;70779;52.506;5.492;2024-02-26T05:25:04;7.00;70.50
81311;DHT22;70779;52.506;5.492;2024-02-26T05:27:30;7.00;70.60
81311;DHT22;70779;52.506;5.492;2024-02-26T05:29:56;7.00;70.70
81311;DHT22;70779;52.506;5.492;2024-02-26T05:32:22;7.00;70.70
81311;DHT22;70779;52.506;5.492;2024-02-26T05:34:48;7.00;70.70
81311;DHT22;70779;52.506;5.492;2024-02-26T05:37:14;7.00;70.70
81311;DHT22;70779;52.506;5.492;2024-02-26T05:39:40;7.00;70.70
81311;DHT22;70779;52.506;5.492;2024-02-26T05:42:06;7.00;70.70
81311;DHT22;70779;52.506;5.492;2024-02-26T05:44:34;7.00;70.70
81311;DHT22;70779;52.506;5.492;2024-02-26T05:47:00;7.00;70.70
81311;DHT22;70779;52.506;5.492;2024-02-26T05:49:26;7.00;70.70
81311;DHT22;70779;52.506;5.492;2024-02-26T05:51:52;7.00;70.60
81311;DHT22;70779;52.506;5.492;2024-02-26T05:54:19;7.00;70.70
81311;DHT22;70779;52.506;5.492;2024-02-26T05:56:45;7.00;70.70
81311;DHT22;70779;52.506;5.492;2024-02-26T05:59:11;7.00;70.70
81311;DHT22;70779;52.506;5.492;2024-02-26T06:01:37;7.00;70.60
81311;DHT22;70779;52.506;5.492;2024-02-26T06:04:03;7.00;70.50
81311;DHT22;70779;52.506;5.492;2024-02-26T06:06:29;7.10;70.40
81311;DHT22;70779;52.506;5.492;2024-02-26T06:08:55;7.10;70.40
81311;DHT22;70779;52.506;5.492;2024-02-26T06:11:21;7.10;70.30
81311;DHT22;70779;52.506;5.492;2024-02-26T06:13:48;7.20;70.20
81311;DHT22;70779;52.506;5.492;2024-02-26T06:16:14;7.10;70.10
81311;DHT22;70779;52.506;5.492;2024-02-26T06:18:41;7.10;70.10
81311;DHT22;70779;52.506;5.492;2024-02-26T06:21:10;7.10;70.10
81311;DHT22;70779;52.506;5.492;2024-02-26T06:23:38;7.10;70.00
81311;DHT22;70779;52.506;5.492;2024-02-26T06:26:04;7.00;69.90
81311;DHT22;70779;52.506;5.492;2024-02-26T06:28:30;7.00;70.00
81311;DHT22;70779;52.506;5.492;2024-02-26T06:30:58;7.00;70.00
81311;DHT22;70779;52.506;5.492;2024-02-26T06:33:24;7.00;70.00
81311;DHT22;70779;52.506;5.492;2024-02-26T06:35:50;7.00;70.00
81311;DHT22;70779;52.506;5.492;2024-02-26T06:38:16;7.10;69.60
81311;DHT22;70779;52.506;5.492;2024-02-26T06:40:44;7.00;69.60
81311;DHT22;70779;52.506;5.492;2024-02-26T06:43:10;7.00;69.50
81311;DHT22;70779;52.506;5.492;2024-02-26T06:45:36;7.00;69.40
81311;DHT22;70779;52.506;5.492;2024-02-26T06:48:02;7.00;69.50
81311;DHT22;70779;52.506;5.492;2024-02-26T06:50:28;7.00;69.60
81311;DHT22;70779;52.506;5.492;2024-02-26T06:52:54;7.00;69.70
81311;DHT22;70779;52.506;5.492;2024-02-26T06:55:20;7.00;69.60
81311;DHT22;70779;52.506;5.492;2024-02-26T06:57:47;7.00;69.40
81311;DHT22;70779;52.506;5.492;2024-02-26T07:00:13;7.00;69.50
81311;DHT22;70779;52.506;5.492;2024-02-26T07:02:43;7.00;69.50
81311;DHT22;70779;52.506;5.492;2024-02-26T07:05:09;7.00;69.50
81311;DHT22;70779;52.506;5.492;2024-02-26T07:07:35;7.00;69.50
81311;DHT22;70779;52.506;5.492;2024-02-26T07:10:02;7.00;69.40
81311;DHT22;70779;52.506;5.492;2024-02-26T07:12:30;7.00;69.50
81311;DHT22;70779;52.506;5.492;2024-02-26T07:14:56;7.00;69.30
81311;DHT22;70779;52.506;5.492;2024-02-26T07:17:22;7.00;69.20
81311;DHT22;70779;52.506;5.492;2024-02-26T07:19:48;7.00;69.20
81311;DHT22;70779;52.506;5.492;2024-02-26T07:22:14;7.00;69.00
81311;DHT22;70779;52.506;5.492;2024-02-26T07:24:40;6.90;68.80
81311;DHT22;70779;52.506;5.492;2024-02-26T07:27:07;6.90;68.90
81311;DHT22;70779;52.506;5.492;2024-02-26T07:29:33;6.90;69.60
81311;DHT22;70779;52.506;5.492;2024-02-26T07:31:59;7.00;69.70
81311;DHT22;70779;52.506;5.492;2024-02-26T07:34:25;7.10;69.20
81311;DHT22;70779;52.506;5.492;2024-02-26T07:36:55;7.20;69.20
81311;DHT22;70779;52.506;5.492;2024-02-26T07:39:22;7.30;68.60
81311;DHT22;70779;52.506;5.492;2024-02-26T07:41:48;7.40;68.30
81311;DHT22;70779;52.506;5.492;2024-02-26T07:44:17;7.40;67.90
81311;DHT22;70779;52.506;5.492;2024-02-26T07:46:44;7.40;67.60
81311;DHT22;70779;52.506;5.492;2024-02-26T07:49:10;7.30;67.60
81311;DHT22;70779;52.506;5.492;2024-02-26T07:51:36;7.30;67.60
81311;DHT22;70779;52.506;5.492;2024-02-26T07:54:02;7.20;67.70
81311;DHT22;70779;52.506;5.492;2024-02-26T07:56:28;7.20;67.80
81311;DHT22;70779;52.506;5.492;2024-02-26T07:58:54;7.20;67.70
81311;DHT22;70779;52.506;5.492;2024-02-26T08:01:20;7.20;67.70
81311;DHT22;70779;52.506;5.492;2024-02-26T08:03:46;7.20;67.70
81311;DHT22;70779;52.506;5.492;2024-02-26T08:06:12;7.20;67.60
81311;DHT22;70779;52.506;5.492;2024-02-26T08:08:38;7.20;67.60
81311;DHT22;70779;52.506;5.492;2024-02-26T08:11:04;7.20;67.60
81311;DHT22;70779;52.506;5.492;2024-02-26T08:13:30;7.20;67.50
81311;DHT22;70779;52.506;5.492;2024-02-26T08:15:57;7.20;67.50
81311;DHT22;70779;52.506;5.492;2024-02-26T08:18:23;7.30;67.50
81311;DHT22;70779;52.506;5.492;2024-02-26T08:20:49;7.40;67.40
81311;DHT22;70779;52.506;5.492;2024-02-26T08:23:15;7.40;67.00
81311;DHT22;70779;52.506;5.492;2024-02-26T08:25:41;7.50;66.90
81311;DHT22;70779;52.506;5.492;2024-02-26T08:28:07;7.50;66.90
81311;DHT22;70779;52.506;5.492;2024-02-26T08:30:33;7.50;66.80
81311;DHT22;70779;52.506;5.492;2024-02-26T08:33:00;7.50;66.70
81311;DHT22;70779;52.506;5.492;2024-02-26T08:35:26;7.50;66.60
81311;DHT22;70779;52.506;5.492;2024-02-26T08:37:52;7.50;66.80
81311;DHT22;70779;52.506;5.492;2024-02-26T08:40:18;7.50;66.70
81311;DHT22;70779;52.506;5.492;2024-02-26T08:42:45;7.60;66.80
81311;DHT22;70779;52.506;5.492;2024-02-26T08:45:11;7.60;66.70
81311;DHT22;70779;52.506;5.492;2024-02-26T08:47:38;7.60;66.60
81311;DHT22;70779;52.506;5.492;2024-02-26T08:50:05;7.70;66.70
81311;DHT22;70779;52.506;5.492;2024-02-26T08:52:32;7.80;66.50
81311;DHT22;70779;52.506;5.492;2024-02-26T08:54:59;7.80;66.30
81311;DHT22;70779;52.506;5.492;2024-02-26T08:57:25;7.80;66.20
81311;DHT22;70779;52.506;5.492;2024-02-26T08:59:53;7.80;66.30
81311;DHT22;70779;52.506;5.492;2024-02-26T09:02:19;7.80;66.30
81311;DHT22;70779;52.506;5.492;2024-02-26T09:04:45;7.80;66.20
81311;DHT22;70779;52.506;5.492;2024-02-26T09:07:11;7.90;66.20
81311;DHT22;70779;52.506;5.492;2024-02-26T09:09:37;7.90;66.30
81311;DHT22;70779;52.506;5.492;2024-02-26T09:12:04;8.00;66.30
81311;DHT22;70779;52.506;5.492;2024-02-26T09:14:30;8.00;66.10
81311;DHT22;70779;52.506;5.492;2024-02-26T09:16:56;8.00;66.00
81311;DHT22;70779;52.506;5.492;2024-02-26T09:19:24;8.00;66.10
81311;DHT22;70779;52.506;5.492;2024-02-26T09:21:51;8.00;66.10
81311;DHT22;70779;52.506;5.492;2024-02-26T09:24:17;8.00;65.90
81311;DHT22;70779;52.506;5.492;2024-02-26T09:26:43;8.00;65.80
81311;DHT22;70779;52.506;5.492;2024-02-26T09:29:10;8.00;66.00
81311;DHT22;70779;52.506;5.492;2024-02-26T09:31:36;8.00;66.10
81311;DHT22;70779;52.506;5.492;2024-02-26T09:34:02;8.10;66.20
81311;DHT22;70779;52.506;5.492;2024-02-26T09:36:28;8.10;65.50
81311;DHT22;70779;52.506;5.492;2024-02-26T09:38:54;8.20;65.70
81311;DHT22;70779;52.506;5.492;2024-02-26T09:41:20;8.20;65.70
81311;DHT22;70779;52.506;5.492;2024-02-26T09:43:48;8.20;65.60
81311;DHT22;70779;52.506;5.492;2024-02-26T09:46:17;8.30;65.40
81311;DHT22;70779;52.506;5.492;2024-02-26T09:48:47;8.30;65.50
81311;DHT22;70779;52.506;5.492;2024-02-26T09:51:14;8.30;65.30
81311;DHT22;70779;52.506;5.492;2024-02-26T09:53:43;8.30;65.30
81311;DHT22;70779;52.506;5.492;2024-02-26T09:56:11;8.40;65.20
81311;DHT22;70779;52.506;5.492;2024-02-26T09:58:39;8.40;65.20
81311;DHT22;70779;52.506;5.492;2024-02-26T10:01:10;8.40;65.10
81311;DHT22;70779;52.506;5.492;2024-02-26T10:03:39;8.50;65.10
81311;DHT22;70779;52.506;5.492;2024-02-26T10:06:08;8.50;65.00
81311;DHT22;70779;52.506;5.492;2024-02-26T10:08:35;8.50;64.90
81311;DHT22;70779;52.506;5.492;2024-02-26T10:11:07;8.50;64.90
81311;DHT22;70779;52.506;5.492;2024-02-26T10:13:35;8.60;64.80
81311;DHT22;70779;52.506;5.492;2024-02-26T10:16:02;8.60;64.80
81311;DHT22;70779;52.506;5.492;2024-02-26T10:18:48;8.60;64.80
81311;DHT22;70779;52.506;5.492;2024-02-26T10:21:18;8.60;64.70
81311;DHT22;70779;52.506;5.492;2024-02-26T10:23:45;8.70;64.60
81311;DHT22;70779;52.506;5.492;2024-02-26T10:26:15;8.80;64.20
81311;DHT22;70779;52.506;5.492;2024-02-26T10:28:42;8.80;64.00
81311;DHT22;70779;52.506;5.492;2024-02-26T10:31:09;8.90;64.00
81311;DHT22;70779;52.506;5.492;2024-02-26T10:33:36;8.80;64.10
81311;DHT22;70779;52.506;5.492;2024-02-26T10:36:06;8.90;63.90
81311;DHT22;70779;52.506;5.492;2024-02-26T10:38:35;8.90;63.60
81311;DHT22;70779;52.506;5.492;2024-02-26T10:41:06;8.90;63.30
81311;DHT22;70779;52.506;5.492;2024-02-26T10:43:32;9.00;63.50
81311;DHT22;70779;52.506;5.492;2024-02-26T10:45:58;9.00;63.40
81311;DHT22;70779;52.506;5.492;2024-02-26T10:48:24;9.10;63.40
81311;DHT22;70779;52.506;5.492;2024-02-26T10:50:51;9.20;63.20
81311;DHT22;70779;52.506;5.492;2024-02-26T10:53:19;9.20;62.50
81311;DHT22;70779;52.506;5.492;2024-02-26T10:55:52;9.20;62.40
81311;DHT22;70779;52.506;5.492;2024-02-26T10:58:20;9.20;62.40
81311;DHT22;70779;52.506;5.492;2024-02-26T11:00:46;9.10;62.50
81311;DHT22;70779;52.506;5.492;2024-02-26T11:03:14;9.20;62.80
81311;DHT22;70779;52.506;5.492;2024-02-26T11:05:44;9.20;62.50
81311;DHT22;70779;52.506;5.492;2024-02-26T11:08:11;9.20;62.70
81311;DHT22;70779;52.506;5.492;2024-02-26T11:10:38;9.20;62.70
81311;DHT22;70779;52.506;5.492;2024-02-26T11:13:06;9.20;62.50
81311;DHT22;70779;52.506;5.492;2024-02-26T11:15:35;9.40;62.40
81311;DHT22;70779;52.506;5.492;2024-02-26T11:18:01;9.40;62.10
81311;DHT22;70779;52.506;5.492;2024-02-26T11:20:28;9.40;61.80
81311;DHT22;70779;52.506;5.492;2024-02-26T11:22:55;9.50;61.90
81311;DHT22;70779;52.506;5.492;2024-02-26T11:25:22;9.50;61.80
81311;DHT22;70779;52.506;5.492;2024-02-26T11:27:55;9.50;62.00
81311;DHT22;70779;52.506;5.492;2024-02-26T11:30:25;9.60;62.00
81311;DHT22;70779;52.506;5.492;2024-02-26T11:32:52;9.70;61.40
81311;DHT22;70779;52.506;5.492;2024-02-26T11:35:19;9.60;61.10
81311;DHT22;70779;52.506;5.492;2024-02-26T11:37:53;9.60;61.20
81311;DHT22;70779;52.506;5.492;2024-02-26T11:40:20;9.60;61.30
81311;DHT22;70779;52.506;5.492;2024-02-26T11:42:47;9.60;61.40
81311;DHT22;70779;52.506;5.492;2024-02-26T11:48:12;9.60;61.60
81311;DHT22;70779;52.506;5.492;2024-02-26T11:50:42;9.70;61.80
81311;DHT22;70779;52.506;5.492;2024-02-26T11:53:27;9.80;61.60
81311;DHT22;70779;52.506;5.492;2024-02-26T11:56:19;9.90;61.10
81311;DHT22;70779;52.506;5.492;2024-02-26T11:58:46;9.90;60.70
81311;DHT22;70779;52.506;5.492;2024-02-26T12:01:44;9.90;60.60
81311;DHT22;70779;52.506;5.492;2024-02-26T12:07:00;10.00;60.70
81311;DHT22;70779;52.506;5.492;2024-02-26T12:12:00;10.00;60.90
81311;DHT22;70779;52.506;5.492;2024-02-26T12:14:27;10.00;60.50
81311;DHT22;70779;52.506;5.492;2024-02-26T12:16:55;10.10;60.50
81311;DHT22;70779;52.506;5.492;2024-02-26T12:19:21;10.10;60.80
81311;DHT22;70779;52.506;5.492;2024-02-26T12:21:51;10.20;60.30
81311;DHT22;70779;52.506;5.492;2024-02-26T12:24:19;10.30;60.50
81311;DHT22;70779;52.506;5.492;2024-02-26T12:26:46;10.40;60.40
81311;DHT22;70779;52.506;5.492;2024-02-26T12:29:12;10.40;60.10
81311;DHT22;70779;52.506;5.492;2024-02-26T12:31:40;10.50;60.00
81311;DHT22;70779;52.506;5.492;2024-02-26T12:34:07;10.50;59.60
81311;DHT22;70779;52.506;5.492;2024-02-26T12:36:35;10.60;59.40
81311;DHT22;70779;52.506;5.492;2024-02-26T12:39:02;10.60;59.30
81311;DHT22;70779;52.506;5.492;2024-02-26T12:41:32;10.60;59.10
81311;DHT22;70779;52.506;5.492;2024-02-26T12:43:59;10.50;59.10
81311;DHT22;70779;52.506;5.492;2024-02-26T12:46:25;10.50;59.50
81311;DHT22;70779;52.506;5.492;2024-02-26T12:48:51;10.50;59.30
81311;DHT22;70779;52.506;5.492;2024-02-26T12:51:17;10.40;59.20
81311;DHT22;70779;52.506;5.492;2024-02-26T12:53:45;10.40;59.10
81311;DHT22;70779;52.506;5.492;2024-02-26T12:56:12;10.30;59.50
81311;DHT22;70779;52.506;5.492;2024-02-26T12:58:39;10.30;59.60
81311;DHT22;70779;52.506;5.492;2024-02-26T13:01:06;10.30;59.70
81311;DHT22;70779;52.506;5.492;2024-02-26T13:03:34;10.30;59.50
81311;DHT22;70779;52.506;5.492;2024-02-26T13:06:02;10.30;59.40
81311;DHT22;70779;52.506;5.492;2024-02-26T13:08:28;10.20;59.60
81311;DHT22;70779;52.506;5.492;2024-02-26T13:10:54;10.20;59.50
81311;DHT22;70779;52.506;5.492;2024-02-26T13:13:22;10.20;59.70
81311;DHT22;70779;52.506;5.492;2024-02-26T13:15:48;10.20;60.00
81311;DHT22;70779;52.506;5.492;2024-02-26T13:18:14;10.30;60.20
81311;DHT22;70779;52.506;5.492;2024-02-26T13:20:41;10.30;59.80
81311;DHT22;70779;52.506;5.492;2024-02-26T13:23:11;10.30;59.50
81311;DHT22;70779;52.506;5.492;2024-02-26T13:25:38;10.30;59.90
81311;DHT22;70779;52.506;5.492;2024-02-26T13:28:15;10.30;59.70
81311;DHT22;70779;52.506;5.492;2024-02-26T13:30:50;10.40;59.90
81311;DHT22;70779;52.506;5.492;2024-02-26T13:33:16;10.40;59.40
81311;DHT22;70779;52.506;5.492;2024-02-26T13:35:43;10.40;59.30
81311;DHT22;70779;52.506;5.492;2024-02-26T13:38:10;10.30;59.40
81311;DHT22;70779;52.506;5.492;2024-02-26T13:40:36;10.30;59.30
81311;DHT22;70779;52.506;5.492;2024-02-26T13:43:03;10.30;59.60
81311;DHT22;70779;52.506;5.492;2024-02-26T13:45:29;10.30;59.90
81311;DHT22;70779;52.506;5.492;2024-02-26T13:48:08;10.40;59.80
81311;DHT22;70779;52.506;5.492;2024-02-26T13:50:36;10.40;59.80
81311;DHT22;70779;52.506;5.492;2024-02-26T13:53:02;10.50;59.70
81311;DHT22;70779;52.506;5.492;2024-02-26T13:55:28;10.50;59.70
81311;DHT22;70779;52.506;5.492;2024-02-26T13:57:56;10.50;59.60
81311;DHT22;70779;52.506;5.492;2024-02-26T14:00:23;10.50;59.70
81311;DHT22;70779;52.506;5.492;2024-02-26T14:02:50;10.40;59.60
81311;DHT22;70779;52.506;5.492;2024-02-26T14:05:17;10.40;59.70
81311;DHT22;70779;52.506;5.492;2024-02-26T14:07:43;10.40;59.80
81311;DHT22;70779;52.506;5.492;2024-02-26T14:10:11;10.30;59.70
81311;DHT22;70779;52.506;5.492;2024-02-26T14:12:38;10.30;59.70
81311;DHT22;70779;52.506;5.492;2024-02-26T14:15:09;10.30;59.60
81311;DHT22;70779;52.506;5.492;2024-02-26T14:17:36;10.20;59.40
81311;DHT22;70779;52.506;5.492;2024-02-26T14:20:02;10.20;59.50
81311;DHT22;70779;52.506;5.492;2024-02-26T14:22:29;10.20;59.70
81311;DHT22;70779;52.506;5.492;2024-02-26T14:24:57;10.10;59.70
81311;DHT22;70779;52.506;5.492;2024-02-26T14:27:23;10.10;59.80
81311;DHT22;70779;52.506;5.492;2024-02-26T14:29:49;10.10;59.90
81311;DHT22;70779;52.506;5.492;2024-02-26T14:32:15;10.00;60.20
81311;DHT22;70779;52.506;5.492;2024-02-26T14:34:42;10.00;60.30
81311;DHT22;70779;52.506;5.492;2024-02-26T14:37:08;10.00;60.40
81311;DHT22;70779;52.506;5.492;2024-02-26T14:39:34;10.00;60.20
81311;DHT22;70779;52.506;5.492;2024-02-26T14:42:01;10.00;59.90
81311;DHT22;70779;52.506;5.492;2024-02-26T14:44:27;9.90;60.20
81311;DHT22;70779;52.506;5.492;2024-02-26T14:46:53;9.80;60.00
81311;DHT22;70779;52.506;5.492;2024-02-26T14:49:19;9.80;60.10
81311;DHT22;70779;52.506;5.492;2024-02-26T14:51:45;9.70;59.80
81311;DHT22;70779;52.506;5.492;2024-02-26T14:54:13;9.70;60.20
81311;DHT22;70779;52.506;5.492;2024-02-26T14:56:39;9.70;60.30
81311;DHT22;70779;52.506;5.492;2024-02-26T14:59:05;9.60;60.60
81311;DHT22;70779;52.506;5.492;2024-02-26T15:01:32;9.60;60.80
81311;DHT22;70779;52.506;5.492;2024-02-26T15:03:59;9.50;60.90
81311;DHT22;70779;52.506;5.492;2024-02-26T15:06:25;9.50;60.90
81311;DHT22;70779;52.506;5.492;2024-02-26T15:08:52;9.50;61.10
81311;DHT22;70779;52.506;5.492;2024-02-26T15:11:18;9.50;61.30
81311;DHT22;70779;52.506;5.492;2024-02-26T15:13:44;9.50;61.40
81311;DHT22;70779;52.506;5.492;2024-02-26T15:16:18;9.50;61.50
81311;DHT22;70779;52.506;5.492;2024-02-26T15:18:45;9.40;61.50
81311;DHT22;70779;52.506;5.492;2024-02-26T15:21:12;9.40;61.50
81311;DHT22;70779;52.506;5.492;2024-02-26T15:23:39;9.40;61.40
81311;DHT22;70779;52.506;5.492;2024-02-26T15:26:05;9.40;61.40
81311;DHT22;70779;52.506;5.492;2024-02-26T15:28:31;9.40;61.20
81311;DHT22;70779;52.506;5.492;2024-02-26T15:30:57;9.30;61.40
81311;DHT22;70779;52.506;5.492;2024-02-26T15:33:24;9.30;61.50
81311;DHT22;70779;52.506;5.492;2024-02-26T15:35:50;9.20;61.60
81311;DHT22;70779;52.506;5.492;2024-02-26T15:38:17;9.20;61.40
81311;DHT22;70779;52.506;5.492;2024-02-26T15:40:43;9.20;61.60
81311;DHT22;70779;52.506;5.492;2024-02-26T15:43:10;9.20;61.60
81311;DHT22;70779;52.506;5.492;2024-02-26T15:45:36;9.00;61.80
81311;DHT22;70779;52.506;5.492;2024-02-26T15:48:02;9.00;61.80